Time,TemperatureF,DewpointF,PressureIn,WindDirection,WindDirectionDegrees,WindSpeedMPH,WindSpeedGustMPH,Humidity,HourlyPrecipIn,Conditions,Clouds,dailyrainin,SoftwareType,DateUTC
2013-12-04 00:05:00,34.2,33.0,29.95,ESE,104,0.0,1.0,95,0.00,,,0.00,weatherlink.com 1.10,2013-12-04 05:05:00,
2013-12-04 00:20:00,34.6,33.0,29.95,ESE,104,0.0,1.0,95,0.00,,,0.00,weatherlink.com 1.10,2013-12-04 05:20:00,
2013-12-04 00:35:00,34.8,34.0,29.95,ESE,104,0.0,0.0,95,0.00,,,0.00,weatherlink.com 1.10,2013-12-04 05:35:00,
2013-12-04 00:50:00,34.6,33.0,29.95,ESE,104,0.0,0.0,94,0.00,,,0.00,weatherlink.com 1.10,2013-12-04 05:50:00,
2013-12-04 01:05:00,34.3,33.0,29.94,ESE,104,0.0,0.0,94,0.00,,,0.00,weatherlink.com 1.10,2013-12-04 06:05:00,
2013-12-04 01:20:00,34.2,33.0,29.95,ESE,104,0.0,0.0,94,0.00,,,0.00,weatherlink.com 1.10,2013-12-04 06:20:00,
2013-12-04 01:35:00,34.1,33.0,29.94,ESE,104,0.0,0.0,95,0.00,,,0.00,weatherlink.com 1.10,2013-12-04 06:35:00,
2013-12-04 01:50:00,33.7,32.0,29.95,ESE,104,0.0,0.0,94,0.00,,,0.00,weatherlink.com 1.10,2013-12-04 06:50:00,
2013-12-04 02:05:00,33.3,32.0,29.96,ESE,104,0.0,0.0,94,0.00,,,0.00,weatherlink.com 1.10,2013-12-04 07:05:00,
2013-12-04 02:20:00,33.2,32.0,29.96,ESE,104,0.0,0.0,95,0.00,,,0.00,weatherlink.com 1.10,2013-12-04 07:20:00,
2013-12-04 02:35:00,32.7,31.0,29.98,ESE,104,0.0,0.0,94,0.00,,,0.00,weatherlink.com 1.10,2013-12-04 07:35:00,
2013-12-04 02:51:00,32.5,31.0,29.98,ESE,104,0.0,0.0,95,0.00,,,0.00,weatherlink.com 1.10,2013-12-04 07:51:00,
2013-12-04 03:07:00,32.5,31.0,29.98,ESE,104,0.0,0.0,95,0.00,,,0.00,weatherlink.com 1.10,2013-12-04 08:07:00,
2013-12-04 03:21:00,32.1,31.0,29.98,ESE,104,0.0,0.0,95,0.00,,,0.00,weatherlink.com 1.10,2013-12-04 08:21:00,
2013-12-04 03:36:00,31.7,31.0,29.98,ENE,65,0.0,1.0,95,0.00,,,0.00,weatherlink.com 1.10,2013-12-04 08:36:00,
2013-12-04 03:51:00,31.3,30.0,29.98,ENE,64,0.0,0.0,95,0.00,,,0.00,weatherlink.com 1.10,2013-12-04 08:51:00,
2013-12-04 04:06:00,31.0,30.0,29.97,ENE,67,0.0,2.0,95,0.00,,,0.00,weatherlink.com 1.10,2013-12-04 09:06:00,
2013-12-04 04:21:00,30.7,30.0,29.96,ENE,67,0.0,0.0,95,0.00,,,0.00,weatherlink.com 1.10,2013-12-04 09:21:00,
2013-12-04 04:36:00,30.3,29.0,29.96,ENE,67,0.0,0.0,95,0.00,,,0.00,weatherlink.com 1.10,2013-12-04 09:36:00,
2013-12-04 04:51:00,30.1,29.0,29.96,ENE,66,0.0,0.0,96,0.00,,,0.00,weatherlink.com 1.10,2013-12-04 09:51:00,
2013-12-04 05:06:00,30.2,29.0,29.97,ENE,63,0.0,0.0,96,0.00,,,0.00,weatherlink.com 1.10,2013-12-04 10:06:00,
2013-12-04 05:21:00,30.1,29.0,29.96,ENE,63,0.0,0.0,96,0.00,,,0.00,weatherlink.com 1.10,2013-12-04 10:21:00,
2013-12-04 05:36:00,29.9,29.0,29.96,ENE,63,0.0,0.0,96,0.00,,,0.00,weatherlink.com 1.10,2013-12-04 10:36:00,
2013-12-04 05:51:00,29.9,29.0,29.97,NE,56,0.0,0.0,96,0.00,,,0.00,weatherlink.com 1.10,2013-12-04 10:51:00,
2013-12-04 06:06:00,30.6,30.0,29.98,WNW,301,0.0,0.0,97,0.00,,,0.00,weatherlink.com 1.10,2013-12-04 11:06:00,
2013-12-04 06:21:00,30.8,30.0,29.98,WNW,301,0.0,0.0,97,0.00,,,0.00,weatherlink.com 1.10,2013-12-04 11:21:00,
2013-12-04 06:36:00,30.4,29.0,29.98,WNW,301,0.0,1.0,96,0.00,,,0.00,weatherlink.com 1.10,2013-12-04 11:36:00,
2013-12-04 06:51:00,30.2,29.0,29.99,WNW,301,0.0,0.0,96,0.00,,,0.00,weatherlink.com 1.10,2013-12-04 11:51:00,
2013-12-04 07:06:00,30.3,30.0,30.00,WNW,301,0.0,2.0,97,0.00,,,0.00,weatherlink.com 1.10,2013-12-04 12:06:00,
2013-12-04 07:21:00,30.1,29.0,29.99,WNW,301,0.0,0.0,96,0.00,,,0.00,weatherlink.com 1.10,2013-12-04 12:21:00,
2013-12-04 07:36:00,29.9,29.0,30.00,WNW,301,0.0,0.0,96,0.00,,,0.00,weatherlink.com 1.10,2013-12-04 12:36:00,
2013-12-04 07:51:00,30.0,29.0,30.00,WNW,301,0.0,0.0,96,0.00,,,0.00,weatherlink.com 1.10,2013-12-04 12:51:00,
2013-12-04 08:06:00,30.2,29.0,30.01,NNW,330,0.0,0.0,96,0.00,,,0.00,weatherlink.com 1.10,2013-12-04 13:06:00,
2013-12-04 08:21:00,31.4,31.0,30.02,NNW,330,0.0,0.0,97,0.00,,,0.00,weatherlink.com 1.10,2013-12-04 13:21:00,
2013-12-04 08:36:00,33.2,33.0,30.02,NNW,330,0.0,0.0,98,0.00,,,0.00,weatherlink.com 1.10,2013-12-04 13:36:00,
2013-12-04 08:51:00,35.5,35.0,30.03,NNW,330,0.0,1.0,98,0.00,,,0.00,weatherlink.com 1.10,2013-12-04 13:51:00,
2013-12-04 09:06:00,37.5,37.0,30.03,NNW,330,0.0,0.0,96,0.00,,,0.00,weatherlink.com 1.10,2013-12-04 14:06:00,
2013-12-04 09:21:00,38.8,37.0,30.04,NNW,330,1.0,2.0,93,0.00,,,0.00,weatherlink.com 1.10,2013-12-04 14:21:00,
2013-12-04 09:36:00,40.1,38.0,30.04,North,4,0.0,3.0,91,0.00,,,0.00,weatherlink.com 1.10,2013-12-04 14:36:00,
2013-12-04 09:51:00,41.4,38.0,30.04,NNE,12,0.0,2.0,89,0.00,,,0.00,weatherlink.com 1.10,2013-12-04 14:51:00,
2013-12-04 10:06:00,43.2,39.0,30.04,NNE,23,3.0,4.0,86,0.00,,,0.00,weatherlink.com 1.10,2013-12-04 15:06:00,
2013-12-04 10:22:00,44.6,40.0,30.04,NNE,31,0.0,4.0,83,0.00,,,0.00,weatherlink.com 1.10,2013-12-04 15:22:00,
2013-12-04 10:37:00,45.4,40.0,30.04,NNE,31,0.0,3.0,81,0.00,,,0.00,weatherlink.com 1.10,2013-12-04 15:37:00,
2013-12-04 10:52:00,47.0,40.0,30.03,NNE,31,3.0,3.0,78,0.00,,,0.00,weatherlink.com 1.10,2013-12-04 15:52:00,
2013-12-04 11:07:00,48.5,41.0,30.03,North,2,1.0,4.0,76,0.00,,,0.00,weatherlink.com 1.10,2013-12-04 16:07:00,
2013-12-04 11:22:00,49.2,42.0,30.03,NNE,17,1.0,4.0,75,0.00,,,0.00,weatherlink.com 1.10,2013-12-04 16:22:00,
2013-12-04 11:37:00,49.9,42.0,30.02,ENE,60,0.0,5.0,73,0.00,,,0.00,weatherlink.com 1.10,2013-12-04 16:37:00,
2013-12-04 11:52:00,50.5,43.0,30.01,North,8,0.0,6.0,74,0.00,,,0.00,weatherlink.com 1.10,2013-12-04 16:52:00,
2013-12-04 12:07:00,51.3,42.0,30.01,East,82,2.0,5.0,70,0.00,,,0.00,weatherlink.com 1.10,2013-12-04 17:07:00,
2013-12-04 12:22:00,52.0,43.0,30.00,NE,37,2.0,4.0,71,0.00,,,0.00,weatherlink.com 1.10,2013-12-04 17:22:00,
2013-12-04 12:37:00,53.0,43.0,29.99,NNE,25,1.0,6.0,70,0.00,,,0.00,weatherlink.com 1.10,2013-12-04 17:37:00,
2013-12-04 12:52:00,53.7,44.0,29.99,NE,42,2.0,5.0,69,0.00,,,0.00,weatherlink.com 1.10,2013-12-04 17:52:00,
2013-12-04 13:07:00,54.3,44.0,29.98,ENE,67,2.0,4.0,68,0.00,,,0.00,weatherlink.com 1.10,2013-12-04 18:07:00,
2013-12-04 13:22:00,54.8,44.0,29.98,NNE,19,2.0,4.0,67,0.00,,,0.00,weatherlink.com 1.10,2013-12-04 18:22:00,
2013-12-04 13:37:00,55.2,44.0,29.97,ENE,69,0.0,4.0,66,0.00,,,0.00,weatherlink.com 1.10,2013-12-04 18:37:00,
2013-12-04 13:52:00,56.0,45.0,29.97,NE,36,2.0,5.0,66,0.00,,,0.00,weatherlink.com 1.10,2013-12-04 18:52:00,
2013-12-04 14:07:00,56.0,45.0,29.96,East,81,0.0,7.0,66,0.00,,,0.00,weatherlink.com 1.10,2013-12-04 19:07:00,
2013-12-04 14:22:00,55.8,44.0,29.96,ENE,73,3.0,4.0,66,0.00,,,0.00,weatherlink.com 1.10,2013-12-04 19:22:00,
2013-12-04 14:37:00,55.9,45.0,29.95,ENE,72,4.0,6.0,66,0.00,,,0.00,weatherlink.com 1.10,2013-12-04 19:37:00,
2013-12-04 14:52:00,55.9,45.0,29.95,ESE,121,2.0,8.0,67,0.00,,,0.00,weatherlink.com 1.10,2013-12-04 19:52:00,
2013-12-04 15:07:00,56.0,45.0,29.95,East,101,3.0,6.0,66,0.00,,,0.00,weatherlink.com 1.10,2013-12-04 20:07:00,
2013-12-04 15:22:00,55.9,45.0,29.95,ESE,104,2.0,6.0,68,0.00,,,0.00,weatherlink.com 1.10,2013-12-04 20:22:00,
2013-12-04 15:37:00,55.8,45.0,29.95,NE,36,1.0,3.0,68,0.00,,,0.00,weatherlink.com 1.10,2013-12-04 20:37:00,
2013-12-04 15:52:00,55.5,45.0,29.95,NE,43,0.0,2.0,69,0.00,,,0.00,weatherlink.com 1.10,2013-12-04 20:52:00,
2013-12-04 16:07:00,54.7,46.0,29.95,NE,43,0.0,1.0,72,0.00,,,0.00,weatherlink.com 1.10,2013-12-04 21:07:00,
2013-12-04 16:22:00,53.8,46.0,29.95,NE,43,0.0,2.0,74,0.00,,,0.00,weatherlink.com 1.10,2013-12-04 21:22:00,
2013-12-04 16:37:00,53.0,45.0,29.96,NE,52,0.0,2.0,75,0.00,,,0.00,weatherlink.com 1.10,2013-12-04 21:37:00,
2013-12-04 16:52:00,52.2,45.0,29.97,NE,52,0.0,0.0,77,0.00,,,0.00,weatherlink.com 1.10,2013-12-04 21:52:00,
2013-12-04 17:07:00,51.3,45.0,29.97,NE,52,0.0,0.0,79,0.00,,,0.00,weatherlink.com 1.10,2013-12-04 22:07:00,
2013-12-04 17:22:00,50.4,44.0,29.98,NE,52,1.0,1.0,80,0.00,,,0.00,weatherlink.com 1.10,2013-12-04 22:22:00,
2013-12-04 17:37:00,49.6,44.0,29.98,NE,50,0.0,2.0,82,0.00,,,0.00,weatherlink.com 1.10,2013-12-04 22:37:00,
2013-12-04 17:53:00,48.8,44.0,29.98,NE,50,0.0,1.0,83,0.00,,,0.00,weatherlink.com 1.10,2013-12-04 22:53:00,
2013-12-04 18:08:00,48.1,44.0,29.98,NE,50,0.0,1.0,85,0.00,,,0.00,weatherlink.com 1.10,2013-12-04 23:08:00,
2013-12-04 18:23:00,47.3,43.0,29.98,NE,50,0.0,0.0,86,0.00,,,0.00,weatherlink.com 1.10,2013-12-04 23:23:00,
2013-12-04 18:38:00,46.5,43.0,29.98,NE,50,0.0,0.0,87,0.00,,,0.00,weatherlink.com 1.10,2013-12-04 23:38:00,
2013-12-04 18:53:00,45.6,42.0,29.98,NE,50,0.0,0.0,88,0.00,,,0.00,weatherlink.com 1.10,2013-12-04 23:53:00,
2013-12-04 19:08:00,44.9,42.0,29.99,NE,50,0.0,0.0,89,0.00,,,0.00,weatherlink.com 1.10,2013-12-05 00:08:00,
2013-12-04 19:23:00,44.1,41.0,29.99,NE,50,0.0,0.0,90,0.00,,,0.00,weatherlink.com 1.10,2013-12-05 00:23:00,
2013-12-04 19:38:00,43.3,41.0,29.99,NE,50,0.0,0.0,90,0.00,,,0.00,weatherlink.com 1.10,2013-12-05 00:38:00,
2013-12-04 19:53:00,42.6,40.0,29.99,NE,54,0.0,1.0,91,0.00,,,0.00,weatherlink.com 1.10,2013-12-05 00:53:00,
2013-12-04 20:08:00,41.8,39.0,29.99,NE,54,0.0,0.0,91,0.00,,,0.00,weatherlink.com 1.10,2013-12-05 01:08:00,
2013-12-04 20:23:00,41.3,39.0,30.00,NE,54,0.0,0.0,92,0.00,,,0.00,weatherlink.com 1.10,2013-12-05 01:23:00,
2013-12-04 20:38:00,40.7,39.0,30.00,NE,54,0.0,0.0,92,0.00,,,0.00,weatherlink.com 1.10,2013-12-05 01:38:00,
2013-12-04 20:53:00,40.2,38.0,30.00,NE,54,0.0,0.0,93,0.00,,,0.00,weatherlink.com 1.10,2013-12-05 01:53:00,
2013-12-04 21:08:00,40.0,39.0,30.00,NE,54,0.0,0.0,94,0.00,,,0.00,weatherlink.com 1.10,2013-12-05 02:08:00,
2013-12-04 21:23:00,39.6,38.0,30.00,NE,54,0.0,0.0,94,0.00,,,0.00,weatherlink.com 1.10,2013-12-05 02:23:00,
2013-12-04 21:38:00,39.3,38.0,30.00,NE,54,0.0,0.0,94,0.00,,,0.00,weatherlink.com 1.10,2013-12-05 02:38:00,
2013-12-04 21:53:00,38.8,37.0,30.01,NE,54,0.0,0.0,94,0.00,,,0.00,weatherlink.com 1.10,2013-12-05 02:53:00,
2013-12-04 22:08:00,38.2,37.0,30.00,NE,54,0.0,0.0,94,0.00,,,0.00,weatherlink.com 1.10,2013-12-05 03:08:00,
2013-12-04 22:23:00,37.8,37.0,30.00,NE,54,0.0,0.0,95,0.00,,,0.00,weatherlink.com 1.10,2013-12-05 03:23:00,
2013-12-04 22:38:00,37.5,36.0,30.00,NE,54,0.0,0.0,95,0.00,,,0.00,weatherlink.com 1.10,2013-12-05 03:38:00,
2013-12-04 22:53:00,37.8,37.0,30.00,NE,54,0.0,0.0,96,0.00,,,0.00,weatherlink.com 1.10,2013-12-05 03:53:00,
2013-12-04 23:08:00,39.2,39.0,30.00,NE,54,0.0,0.0,97,0.00,,,0.00,weatherlink.com 1.10,2013-12-05 04:08:00,
2013-12-04 23:23:00,40.2,39.0,30.01,NNW,337,1.0,2.0,97,0.00,,,0.00,weatherlink.com 1.10,2013-12-05 04:23:00,
2013-12-04 23:38:00,41.8,41.0,30.01,NNW,337,0.0,1.0,98,0.00,,,0.00,weatherlink.com 1.10,2013-12-05 04:38:00,
2013-12-04 23:53:00,42.2,41.0,30.00,NNW,337,0.0,0.0,97,0.00,,,0.00,weatherlink.com 1.10,2013-12-05 04:53:00,